createdAt,value
2019-03-01T00:00:01.570Z,1
2019-03-01T00:05:03.348Z,1
2019-03-01T00:10:02.867Z,1
2019-03-01T00:15:03.215Z,1
2019-03-01T00:20:02.623Z,1
2019-03-01T00:25:02.990Z,1
2019-03-01T00:30:02.316Z,1
2019-03-01T00:35:01.922Z,1
2019-03-01T00:40:02.352Z,1
2019-03-01T00:45:02.728Z,1
2019-03-01T00:50:03.140Z,1
2019-03-01T00:55:02.594Z,1
2019-03-01T01:00:02.988Z,1
2019-03-01T01:05:02.931Z,1
2019-03-01T01:10:02.366Z,1
2019-03-01T01:15:02.805Z,1
2019-03-01T01:20:03.268Z,1
2019-03-01T01:25:02.661Z,1
2019-03-01T01:30:02.997Z,1
2019-03-01T01:35:02.576Z,1
2019-03-01T01:40:03.114Z,1
2019-03-01T01:45:01.675Z,1
2019-03-01T01:50:03.038Z,1
2019-03-01T01:55:02.440Z,1
2019-03-01T02:00:02.782Z,1
2019-03-01T02:05:03.232Z,1
2019-03-01T02:10:02.641Z,1
2019-03-01T02:15:03.094Z,1
2019-03-01T02:20:02.500Z,1
2019-03-01T02:25:02.854Z,1
2019-03-01T02:30:03.231Z,1
2019-03-01T02:35:02.611Z,1
2019-03-01T02:40:03.056Z,1
2019-03-01T02:45:02.483Z,1
2019-03-01T02:50:02.821Z,1
2019-03-01T02:55:03.264Z,1
2019-03-01T03:00:02.676Z,1
2019-03-01T03:05:03.022Z,1
2019-03-01T03:10:02.475Z,1
2019-03-01T03:15:02.881Z,1
2019-03-01T03:20:03.323Z,1
2019-03-01T03:25:02.734Z,1
2019-03-01T03:30:03.094Z,1
2019-03-01T03:35:02.546Z,1
2019-03-01T03:40:02.947Z,1
2019-03-01T03:45:03.315Z,1
2019-03-01T03:50:02.704Z,1
2019-03-01T03:55:03.051Z,1
2019-03-01T04:00:02.605Z,1
2019-03-01T04:05:03.057Z,1
2019-03-01T04:10:02.544Z,1
2019-03-01T04:15:02.915Z,1
2019-03-01T04:20:03.270Z,1
2019-03-01T04:25:02.652Z,1
2019-03-01T04:30:03.081Z,1
2019-03-01T04:35:02.496Z,1
2019-03-01T04:40:02.943Z,1
2019-03-01T04:45:03.287Z,1
2019-03-01T04:50:02.692Z,1
2019-03-01T04:55:03.057Z,1
2019-03-01T05:00:02.414Z,1
2019-03-01T05:05:02.846Z,1
2019-03-01T05:10:03.252Z,1
2019-03-01T05:15:02.696Z,1
2019-03-01T05:20:03.072Z,1
2019-03-01T05:25:02.466Z,1
2019-03-01T05:30:03.011Z,1
2019-03-01T05:35:02.393Z,1
2019-03-01T05:40:02.874Z,1
2019-03-01T05:45:03.316Z,1
2019-03-01T05:50:02.697Z,1
2019-03-01T05:55:03.180Z,1
2019-03-01T06:00:02.558Z,2
2019-03-01T06:05:02.900Z,5
2019-03-01T06:10:03.355Z,10
2019-03-01T06:15:02.743Z,16
2019-03-01T06:20:03.314Z,21
2019-03-01T06:25:02.748Z,22
2019-03-01T06:30:03.176Z,35
2019-03-01T06:35:02.580Z,50
2019-03-01T06:40:03.116Z,58
2019-03-01T06:45:02.481Z,66
2019-03-01T06:50:02.904Z,80
2019-03-01T06:55:02.530Z,215
2019-03-01T07:00:03.168Z,281
2019-03-01T07:05:02.511Z,65
2019-03-01T07:10:02.927Z,70
2019-03-01T07:15:03.264Z,91
2019-03-01T07:20:02.707Z,222
2019-03-01T07:25:03.136Z,133
2019-03-01T07:30:02.544Z,74
2019-03-01T07:35:02.898Z,85
2019-03-01T07:40:03.341Z,186
2019-03-01T07:45:02.747Z,186
2019-03-01T07:50:03.105Z,190
2019-03-01T07:55:02.505Z,262
2019-03-01T08:00:02.859Z,324
2019-03-01T08:05:04.024Z,380
2019-03-01T08:10:02.503Z,438
2019-03-01T08:15:04.056Z,538
2019-03-01T08:20:02.478Z,723
2019-03-01T08:25:02.818Z,469
2019-03-01T08:30:03.162Z,602
2019-03-01T08:35:02.572Z,903
2019-03-01T08:40:03.022Z,905
2019-03-01T08:45:02.917Z,711
2019-03-01T08:50:02.401Z,1000
2019-03-01T08:55:03.507Z,1000
2019-03-01T09:00:02.957Z,960
2019-03-01T09:05:05.135Z,987
2019-03-01T09:10:02.844Z,1000
2019-03-01T09:15:04.528Z,1000
2019-03-01T09:20:02.577Z,1000
2019-03-01T09:25:06.349Z,932
2019-03-01T09:30:03.920Z,1000
2019-03-01T09:35:04.366Z,982
2019-03-01T09:40:05.563Z,984
2019-03-01T09:45:02.347Z,1000
2019-03-01T09:50:02.780Z,1000
2019-03-01T09:55:03.123Z,1000
2019-03-01T10:00:02.549Z,1000
2019-03-01T10:05:03.015Z,1000
2019-03-01T10:10:02.527Z,1000
2019-03-01T10:15:02.953Z,1000
2019-03-01T10:20:03.296Z,1000
2019-03-01T10:25:02.703Z,1000
2019-03-01T10:30:03.047Z,1000
2019-03-01T10:35:02.462Z,1000
2019-03-01T10:40:02.175Z,1000
2019-03-01T10:45:02.546Z,1000
2019-03-01T10:50:02.977Z,1000
2019-03-01T10:55:02.390Z,1000
2019-03-01T11:00:02.712Z,1000
2019-03-01T11:05:03.076Z,970
2019-03-01T11:10:02.483Z,1000
2019-03-01T11:15:01.994Z,1000
2019-03-01T11:20:02.355Z,2000
2019-03-01T11:25:02.689Z,2000
2019-03-01T11:30:03.041Z,2000
2019-03-01T11:35:02.454Z,1000
2019-03-01T11:40:02.917Z,1000
2019-03-01T11:45:03.339Z,2000
2019-03-01T11:50:02.760Z,2000
2019-03-01T11:55:03.095Z,1000
2019-03-01T12:00:02.536Z,1000
2019-03-01T12:05:02.874Z,1000
2019-03-01T12:10:03.308Z,1000
2019-03-01T12:15:02.713Z,1000
2019-03-01T12:20:03.086Z,1000
2019-03-01T12:25:02.482Z,1000
2019-03-01T12:30:02.829Z,2000
2019-03-01T12:35:03.168Z,3000
2019-03-01T12:40:02.678Z,3000
2019-03-01T12:45:03.033Z,2000
2019-03-01T12:50:02.470Z,2000
2019-03-01T12:55:02.910Z,2000
2019-03-01T13:00:03.262Z,2000
2019-03-01T13:05:02.670Z,2000
2019-03-01T13:10:06.176Z,2000
2019-03-01T13:15:03.337Z,3000
2019-03-01T13:20:02.806Z,2000
2019-03-01T13:25:03.152Z,2000
2019-03-01T13:30:02.506Z,3000
2019-03-01T13:35:02.865Z,2000
2019-03-01T13:40:03.307Z,2000
2019-03-01T13:45:02.711Z,1000
2019-03-01T13:50:06.093Z,1000
2019-03-01T13:55:03.243Z,1000
2019-03-01T14:00:01.864Z,1000
2019-03-01T14:05:03.257Z,1000
2019-03-01T14:10:04.805Z,1000
2019-03-01T14:15:03.882Z,1000
2019-03-01T14:20:03.256Z,1000
2019-03-01T14:25:05.217Z,1000
2019-03-01T14:30:02.395Z,1000
2019-03-01T14:35:02.746Z,1000
2019-03-01T14:40:03.183Z,1000
2019-03-01T14:45:02.546Z,1000
2019-03-01T14:50:02.949Z,992
2019-03-01T14:55:03.275Z,910
2019-03-01T15:00:09.768Z,776
2019-03-01T15:05:05.357Z,732
2019-03-01T15:10:02.977Z,728
2019-03-01T15:15:02.301Z,703
2019-03-01T15:20:02.742Z,626
2019-03-01T15:25:03.176Z,617
2019-03-01T15:30:05.739Z,519
2019-03-01T15:35:04.225Z,611
2019-03-01T15:40:02.885Z,518
2019-03-01T15:45:05.060Z,466
2019-03-01T15:50:03.246Z,519
2019-03-01T15:55:02.683Z,460
2019-03-01T16:00:03.341Z,478
2019-03-01T16:05:02.757Z,466
2019-03-01T16:10:03.175Z,393
2019-03-01T16:15:02.606Z,351
2019-03-01T16:20:02.960Z,379
2019-03-01T16:25:03.481Z,335
2019-03-01T16:30:02.888Z,284
2019-03-01T16:35:03.262Z,187
2019-03-01T16:40:02.750Z,169
2019-03-01T16:45:03.113Z,179
2019-03-01T16:50:05.814Z,121
2019-03-01T16:55:02.484Z,143
2019-03-01T17:00:02.936Z,94
2019-03-01T17:05:04.728Z,69
2019-03-01T17:10:03.265Z,50
2019-03-01T17:15:02.692Z,36
2019-03-01T17:20:03.658Z,24
2019-03-01T17:25:03.169Z,20
2019-03-01T17:30:02.613Z,14
2019-03-01T17:35:04.960Z,6
2019-03-01T17:40:02.449Z,2
2019-03-01T17:45:02.795Z,1
2019-03-01T17:50:05.527Z,1
2019-03-01T17:55:02.745Z,1
2019-03-01T18:00:03.234Z,1
2019-03-01T18:05:02.605Z,0
2019-03-01T18:10:03.073Z,1
2019-03-01T18:15:02.470Z,1
2019-03-01T18:20:02.822Z,1
2019-03-01T18:25:03.153Z,0
2019-03-01T18:30:02.570Z,1
2019-03-01T18:35:02.981Z,1
2019-03-01T18:40:02.443Z,1
2019-03-01T18:45:03.495Z,1
2019-03-01T18:50:03.234Z,1
2019-03-01T18:55:02.646Z,1
2019-03-01T19:00:02.989Z,1
2019-03-01T19:05:04.487Z,1
2019-03-01T19:10:02.958Z,1
2019-03-01T19:15:03.299Z,1
2019-03-01T19:20:05.668Z,1
2019-03-01T19:25:02.866Z,1
2019-03-01T19:30:05.014Z,0
2019-03-01T19:35:02.501Z,1
2019-03-01T19:40:03.054Z,1
2019-03-01T19:45:04.858Z,1
2019-03-01T19:50:03.359Z,0
2019-03-01T19:55:02.749Z,1
2019-03-01T20:00:03.109Z,1
2019-03-01T20:05:02.523Z,1
2019-03-01T20:10:02.991Z,1
2019-03-01T20:15:02.373Z,1
2019-03-01T20:20:02.844Z,0
2019-03-01T20:25:03.304Z,1
2019-03-01T20:30:04.248Z,1
2019-03-01T20:35:02.829Z,1
2019-03-01T20:40:03.270Z,1
2019-03-01T20:45:02.675Z,0
2019-03-01T20:50:03.597Z,1
2019-03-01T20:55:03.062Z,1
2019-03-01T21:00:02.855Z,0
2019-03-01T21:05:03.257Z,1
2019-03-01T21:10:02.630Z,0
2019-03-01T21:15:03.104Z,0
2019-03-01T21:20:02.552Z,1
2019-03-01T21:25:03.240Z,1
2019-03-01T21:30:02.886Z,1
2019-03-01T21:35:03.212Z,0
2019-03-01T21:40:03.237Z,1
2019-03-01T21:45:02.667Z,1
2019-03-01T21:50:04.269Z,1
2019-03-01T21:55:03.147Z,1
2019-03-01T22:00:02.562Z,0
2019-03-01T22:05:02.906Z,1
2019-03-01T22:10:03.292Z,1
2019-03-01T22:15:02.654Z,1
2019-03-01T22:20:05.717Z,1
2019-03-01T22:25:03.339Z,1
2019-03-01T22:30:02.770Z,0
2019-03-01T22:35:07.860Z,1
2019-03-01T22:40:02.820Z,1
2019-03-01T22:45:03.210Z,1
2019-03-01T22:50:04.043Z,1
2019-03-01T22:55:03.135Z,1
2019-03-01T23:00:02.447Z,0
2019-03-01T23:05:03.833Z,1
2019-03-01T23:10:03.240Z,1
2019-03-01T23:15:06.298Z,1
2019-03-01T23:20:03.111Z,1
2019-03-01T23:25:02.516Z,1
2019-03-01T23:30:02.862Z,1
2019-03-01T23:35:03.204Z,1
2019-03-01T23:40:02.617Z,1
2019-03-01T23:45:02.961Z,1
2019-03-01T23:50:03.308Z,1
2019-03-01T23:55:02.725Z,1
